createdAt,value
2022-09-05T00:02:02.074Z,7.90
2022-09-05T00:05:04.386Z,7.20
2022-09-05T00:08:22.890Z,8.80
2022-09-05T00:11:42.448Z,5.70
2022-09-05T00:15:16.855Z,7.50
2022-09-05T00:21:22.769Z,7.90
2022-09-05T00:24:27.482Z,8.10
2022-09-05T00:25:53.854Z,5.80
2022-09-05T00:29:02.224Z,7.20
2022-09-05T00:32:00.904Z,6.00
2022-09-05T00:35:26.306Z,7.90
2022-09-05T00:38:26.218Z,5.10
2022-09-05T00:41:18.676Z,4.50
2022-09-05T00:44:07.191Z,6.90
2022-09-05T00:47:19.090Z,6.90
2022-09-05T00:50:30.216Z,6.10
2022-09-05T00:53:38.386Z,7.70
2022-09-05T00:56:58.038Z,5.50
2022-09-05T01:00:24.161Z,5.70
2022-09-05T01:03:36.919Z,4.60
2022-09-05T01:06:36.871Z,4.90
2022-09-05T01:10:07.925Z,7.00
2022-09-05T01:13:40.879Z,5.70
2022-09-05T01:16:45.210Z,4.00
2022-09-05T01:19:49.514Z,4.80
2022-09-05T01:22:58.482Z,4.20
2022-09-05T01:26:39.949Z,3.90
2022-09-05T01:29:49.485Z,4.30
2022-09-05T01:33:21.768Z,4.10
2022-09-05T01:36:14.975Z,4.70
2022-09-05T01:40:11.539Z,4.20
2022-09-05T01:42:54.801Z,4.10
2022-09-05T01:46:11.531Z,2.90
2022-09-05T01:49:25.293Z,5.30
2022-09-05T01:52:38.855Z,4.90
2022-09-05T01:56:21.931Z,4.40
2022-09-05T01:59:38.392Z,3.70
2022-09-05T02:03:30.932Z,4.90
2022-09-05T02:07:30.806Z,4.10
2022-09-05T02:10:53.939Z,5.80
2022-09-05T02:14:34.235Z,4.80
2022-09-05T02:17:50.495Z,4.10
2022-09-05T02:20:48.559Z,4.20
2022-09-05T02:23:50.397Z,4.40
2022-09-05T02:26:51.666Z,3.90
2022-09-05T02:30:08.890Z,4.10
2022-09-05T02:33:30.166Z,5.60
2022-09-05T02:36:49.789Z,4.10
2022-09-05T02:45:00.956Z,4.40
2022-09-05T02:45:08.248Z,4.90
2022-09-05T02:47:06.606Z,5.80
2022-09-05T02:53:54.118Z,5.20
2022-09-05T02:57:35.594Z,3.70
2022-09-05T02:58:07.489Z,4.20
2022-09-05T03:01:01.534Z,4.10
2022-09-05T03:04:06.148Z,4.20
2022-09-05T03:07:26.847Z,4.90
2022-09-05T03:10:54.129Z,4.40
2022-09-05T03:14:20.902Z,5.90
2022-09-05T03:17:38.160Z,5.00
2022-09-05T03:21:09.578Z,6.80
2022-09-05T03:24:55.536Z,4.30
2022-09-05T03:28:47.084Z,5.00
2022-09-05T03:32:06.048Z,5.70
2022-09-05T03:35:32.629Z,6.60
2022-09-05T03:39:14.142Z,4.90
2022-09-05T03:42:37.157Z,5.10
2022-09-05T03:46:03.020Z,5.00
2022-09-05T03:49:33.856Z,4.40
2022-09-05T03:57:06.609Z,4.90
2022-09-05T03:57:17.337Z,5.60
2022-09-05T04:00:02.783Z,5.20
2022-09-05T04:08:10.704Z,4.20
2022-09-05T04:08:15.901Z,6.00
2022-09-05T04:10:13.551Z,5.50
2022-09-05T04:13:14.605Z,5.60
2022-09-05T04:16:14.264Z,4.40
2022-09-05T04:19:16.319Z,5.40
2022-09-05T04:23:00.621Z,7.00
2022-09-05T04:26:11.368Z,12.00
2022-09-05T04:29:26.606Z,8.60
2022-09-05T04:32:30.070Z,7.30
2022-09-05T04:35:52.501Z,4.50
2022-09-05T04:38:42.763Z,6.10
2022-09-05T04:41:39.609Z,5.60
2022-09-05T04:45:10.654Z,6.30
2022-09-05T04:48:03.385Z,5.00
2022-09-05T04:51:35.620Z,7.30
2022-09-05T04:54:49.098Z,7.50
2022-09-05T04:58:07.185Z,12.70
2022-09-05T05:06:01.210Z,8.20
2022-09-05T05:06:13.495Z,8.90
2022-09-05T05:08:03.978Z,11.50
2022-09-05T05:17:58.767Z,7.50
2022-09-05T05:17:59.098Z,7.90
2022-09-05T05:18:39.777Z,7.80
2022-09-05T05:21:21.322Z,7.00
2022-09-05T05:24:17.381Z,6.40
2022-09-05T05:27:35.764Z,6.00
2022-09-05T05:30:33.099Z,6.80
2022-09-05T05:33:33.071Z,13.80
2022-09-05T05:36:28.541Z,13.20
2022-09-05T05:39:25.596Z,16.50
2022-09-05T05:42:24.392Z,13.10
2022-09-05T05:45:31.052Z,10.90
2022-09-05T05:48:20.215Z,7.20
2022-09-05T05:52:01.386Z,9.00
2022-09-05T05:55:09.720Z,11.50
2022-09-05T05:58:51.368Z,12.60
2022-09-05T06:01:38.410Z,8.50
2022-09-05T06:05:20.844Z,17.20
2022-09-05T06:14:47.882Z,31.80
2022-09-05T06:15:02.057Z,16.80
2022-09-05T06:16:25.883Z,18.90
2022-09-05T06:20:37.159Z,13.10
2022-09-05T06:23:39.256Z,16.10
2022-09-05T06:27:23.193Z,10.60
2022-09-05T06:30:20.419Z,34.70
2022-09-05T06:33:39.129Z,29.70
2022-09-05T06:37:16.645Z,17.20
2022-09-05T06:40:17.767Z,19.80
2022-09-05T06:43:48.113Z,21.80
2022-09-05T06:47:22.104Z,10.50
2022-09-05T06:50:24.415Z,12.40
2022-09-05T06:53:54.377Z,15.90
2022-09-05T06:57:22.835Z,26.80
2022-09-05T07:00:45.417Z,16.90
2022-09-05T07:04:33.353Z,7.80
2022-09-05T07:07:50.680Z,7.10
2022-09-05T07:10:44.789Z,9.70
2022-09-05T07:14:10.773Z,8.00
2022-09-05T07:17:12.704Z,7.40
2022-09-05T07:20:05.600Z,12.00
2022-09-05T07:24:08.866Z,6.10
2022-09-05T07:27:00.094Z,9.70
2022-09-05T07:30:01.774Z,13.70
2022-09-05T07:32:57.157Z,8.30
2022-09-05T07:35:44.035Z,6.80
2022-09-05T07:38:45.613Z,10.20
2022-09-05T07:41:51.244Z,5.00
2022-09-05T07:44:42.230Z,5.30
2022-09-05T07:47:37.071Z,5.30
2022-09-05T07:55:22.075Z,5.40
2022-09-05T07:56:59.939Z,6.30
2022-09-05T07:57:30.332Z,5.60
2022-09-05T08:01:26.392Z,4.90
2022-09-05T08:04:25.281Z,8.40
2022-09-05T08:07:49.848Z,5.50
2022-09-05T08:11:25.955Z,5.00
2022-09-05T08:15:10.321Z,4.90
2022-09-05T08:18:26.623Z,5.70
2022-09-05T08:21:26.991Z,4.70
2022-09-05T08:24:47.147Z,6.60
2022-09-05T08:28:01.747Z,6.20
2022-09-05T08:31:09.786Z,7.00
2022-09-05T08:34:00.501Z,8.10
2022-09-05T08:36:49.771Z,7.80
2022-09-05T08:39:35.773Z,6.30
2022-09-05T08:43:39.370Z,6.40
2022-09-05T08:46:47.106Z,6.70
2022-09-05T08:50:03.120Z,8.30
2022-09-05T08:53:26.822Z,8.10
2022-09-05T08:57:05.517Z,8.10
2022-09-05T09:00:20.821Z,5.40
2022-09-05T09:03:40.341Z,11.90
2022-09-05T09:07:43.685Z,5.10
2022-09-05T09:10:26.450Z,6.30
2022-09-05T09:13:52.607Z,3.40
2022-09-05T09:17:12.273Z,6.70
2022-09-05T09:20:33.848Z,3.90
2022-09-05T09:23:48.853Z,2.50
2022-09-05T09:26:51.578Z,3.30
2022-09-05T09:29:40.545Z,2.10
2022-09-05T09:32:27.310Z,4.50
2022-09-05T09:35:56.313Z,4.00
2022-09-05T09:39:37.468Z,5.00
2022-09-05T09:42:55.109Z,6.30
2022-09-05T09:46:19.105Z,3.90
2022-09-05T09:49:37.180Z,2.90
2022-09-05T09:52:57.554Z,3.60
2022-09-05T09:56:15.385Z,2.40
2022-09-05T09:59:54.621Z,2.70
2022-09-05T10:08:10.697Z,1.80
2022-09-05T10:10:50.965Z,4.20
2022-09-05T10:14:50.983Z,4.10
2022-09-05T10:17:42.505Z,3.20
2022-09-05T10:21:16.078Z,6.60
2022-09-05T10:24:37.404Z,6.40
2022-09-05T10:27:44.631Z,4.20
2022-09-05T10:32:59.486Z,2.30
2022-09-05T10:35:13.148Z,4.70
2022-09-05T10:37:43.721Z,3.10
2022-09-05T10:40:39.690Z,2.80
2022-09-05T10:44:02.376Z,3.10
2022-09-05T10:47:17.355Z,1.60
2022-09-05T10:50:33.509Z,2.20
2022-09-05T10:54:11.434Z,4.50
2022-09-05T10:57:26.511Z,2.20
2022-09-05T11:02:22.001Z,3.00
2022-09-05T11:04:58.911Z,3.70
2022-09-05T11:08:05.751Z,1.00
2022-09-05T11:11:28.429Z,2.00
2022-09-05T11:14:49.690Z,3.50
2022-09-05T11:17:52.855Z,2.80
2022-09-05T11:21:21.783Z,1.70
2022-09-05T11:24:38.466Z,2.80
2022-09-05T11:27:40.615Z,6.20
2022-09-05T11:30:38.921Z,4.80
2022-09-05T11:39:52.354Z,3.90
2022-09-05T11:40:07.457Z,4.20
2022-09-05T11:42:03.813Z,3.00
2022-09-05T11:45:16.640Z,2.60
2022-09-05T11:48:38.073Z,2.20
2022-09-05T11:52:07.806Z,2.00
2022-09-05T11:55:36.146Z,3.90
2022-09-05T11:58:57.948Z,1.00
2022-09-05T12:02:40.822Z,0.80
2022-09-05T12:05:59.638Z,3.10
2022-09-05T12:09:23.801Z,2.60
2022-09-05T12:13:00.817Z,2.30
2022-09-05T12:16:07.261Z,2.00
2022-09-05T12:19:37.955Z,1.90
2022-09-05T12:22:56.179Z,1.50
2022-09-05T12:27:41.543Z,1.80
2022-09-05T12:29:32.746Z,2.60
2022-09-05T12:34:11.976Z,3.80
2022-09-05T12:36:11.892Z,2.90
2022-09-05T12:40:58.143Z,1.90
2022-09-05T12:42:48.491Z,6.30
2022-09-05T12:46:19.803Z,1.20
2022-09-05T12:49:35.050Z,3.50
2022-09-05T12:52:31.747Z,5.10
2022-09-05T12:55:17.292Z,11.30
2022-09-05T13:03:00.826Z,4.80
2022-09-05T13:03:02.513Z,3.90
2022-09-05T13:05:02.542Z,3.50
2022-09-05T13:07:58.550Z,4.00
2022-09-05T13:14:52.527Z,8.90
2022-09-05T13:14:56.581Z,5.60
2022-09-05T13:17:43.031Z,6.90
2022-09-05T13:20:38.728Z,4.30
2022-09-05T13:23:32.312Z,8.10
2022-09-05T13:26:33.025Z,3.80
2022-09-05T13:29:24.666Z,4.70
2022-09-05T13:37:55.080Z,3.70
2022-09-05T13:38:17.893Z,6.80
2022-09-05T13:39:11.819Z,6.00
2022-09-05T13:42:03.741Z,3.90
2022-09-05T13:44:58.652Z,7.10
2022-09-05T13:48:20.041Z,4.90
2022-09-05T13:51:43.917Z,4.90
2022-09-05T13:55:16.378Z,7.50
2022-09-05T13:58:36.488Z,6.80
2022-09-05T14:02:25.549Z,4.50
2022-09-05T14:05:31.206Z,4.30
2022-09-05T14:13:02.665Z,4.20
2022-09-05T14:15:59.037Z,5.10
2022-09-05T14:19:08.402Z,5.20
2022-09-05T14:21:54.658Z,3.60
2022-09-05T14:24:52.915Z,5.30
2022-09-05T14:27:49.019Z,3.90
2022-09-05T14:33:26.633Z,1.40
2022-09-05T14:37:55.226Z,1.90
2022-09-05T14:38:00.544Z,2.10
2022-09-05T14:41:17.528Z,3.70
2022-09-05T14:44:10.536Z,4.50
2022-09-05T14:47:47.365Z,2.20
2022-09-05T14:50:59.709Z,3.40
2022-09-05T14:54:02.653Z,4.10
2022-09-05T14:59:44.885Z,3.30
2022-09-05T15:02:49.948Z,1.80
2022-09-05T15:03:02.536Z,3.70
2022-09-05T15:05:31.981Z,3.60
2022-09-05T15:09:42.177Z,3.60
2022-09-05T15:12:16.999Z,2.80
2022-09-05T15:14:05.651Z,3.10
2022-09-05T15:17:00.454Z,3.50
2022-09-05T15:20:06.202Z,2.10
2022-09-05T15:22:43.348Z,4.10
2022-09-05T15:25:24.044Z,6.40
2022-09-05T15:27:52.788Z,2.50
2022-09-05T15:30:24.690Z,3.60
2022-09-05T15:33:28.719Z,1.40
2022-09-05T15:36:00.792Z,1.60
2022-09-05T15:41:32.418Z,4.70
2022-09-05T15:44:13.099Z,1.20
2022-09-05T15:46:57.543Z,2.10
2022-09-05T15:49:43.110Z,1.60
2022-09-05T15:52:17.058Z,1.10
2022-09-05T15:54:50.140Z,1.20
2022-09-05T15:57:34.760Z,2.10
2022-09-05T16:00:11.846Z,1.10
2022-09-05T16:02:47.286Z,2.20
2022-09-05T16:10:36.222Z,1.60
2022-09-05T16:10:39.842Z,1.50
2022-09-05T16:17:52.508Z,1.30
2022-09-05T16:23:26.014Z,1.10
2022-09-05T16:23:30.265Z,1.00
2022-09-05T16:25:01.554Z,1.00
2022-09-05T16:28:01.430Z,1.90
2022-09-05T16:30:40.985Z,1.90
2022-09-05T16:33:38.305Z,4.60
2022-09-05T16:37:09.029Z,2.90
2022-09-05T16:40:30.762Z,1.10
2022-09-05T16:43:50.605Z,2.00
2022-09-05T16:50:51.172Z,1.10
2022-09-05T16:57:35.486Z,4.00
2022-09-05T17:00:13.024Z,1.60
2022-09-05T17:03:28.872Z,2.40
2022-09-05T17:10:41.720Z,2.70
2022-09-05T17:13:42.081Z,1.90
2022-09-05T17:17:20.277Z,1.90
2022-09-05T17:20:20.319Z,1.40
2022-09-05T17:27:53.874Z,3.00
2022-09-05T17:29:34.135Z,4.00
2022-09-05T17:31:23.407Z,4.00
2022-09-05T17:32:54.197Z,9.10
2022-09-05T17:35:53.681Z,5.60
2022-09-05T17:39:35.991Z,4.20
2022-09-05T17:42:53.508Z,3.30
2022-09-05T17:45:30.242Z,4.50
2022-09-05T17:50:54.250Z,4.60
2022-09-05T17:53:37.099Z,4.20
2022-09-05T17:56:13.190Z,5.70
2022-09-05T17:59:06.897Z,2.80
2022-09-05T18:01:36.118Z,5.60
2022-09-05T18:04:17.834Z,3.70
2022-09-05T18:07:00.029Z,6.50
2022-09-05T18:09:48.119Z,7.90
2022-09-05T18:13:13.120Z,4.80
2022-09-05T18:19:32.122Z,5.40
2022-09-05T18:22:06.483Z,6.70
2022-09-05T18:24:54.094Z,6.80
2022-09-05T18:28:03.139Z,8.80
2022-09-05T18:30:21.318Z,8.70
2022-09-05T18:33:55.488Z,6.40
2022-09-05T18:36:43.316Z,5.30
2022-09-05T18:40:19.221Z,15.80
2022-09-05T18:43:42.049Z,9.10
2022-09-05T18:46:52.909Z,6.00
2022-09-05T18:50:24.661Z,11.70
2022-09-05T18:53:10.446Z,6.20
2022-09-05T18:56:20.647Z,4.90
2022-09-05T18:59:16.054Z,8.40
2022-09-05T19:02:00.985Z,9.10
2022-09-05T19:04:56.565Z,7.80
2022-09-05T19:07:48.055Z,7.30
2022-09-05T19:10:34.538Z,5.70
2022-09-05T19:13:44.394Z,9.40
2022-09-05T19:16:43.267Z,25.70
2022-09-05T19:19:24.840Z,14.60
2022-09-05T19:22:58.332Z,15.90
2022-09-05T19:24:52.118Z,14.00
2022-09-05T19:32:47.122Z,8.90
2022-09-05T19:36:53.189Z,8.40
2022-09-05T19:36:59.347Z,6.00
2022-09-05T19:37:11.970Z,7.30
2022-09-05T19:40:46.782Z,7.50
2022-09-05T19:47:33.905Z,5.10
2022-09-05T19:47:44.518Z,5.50
2022-09-05T19:50:29.776Z,7.00
2022-09-05T19:53:07.898Z,7.10
2022-09-05T19:55:39.429Z,6.50
2022-09-05T19:58:21.773Z,5.40
2022-09-05T20:01:03.677Z,9.00
2022-09-05T20:03:38.427Z,4.90
2022-09-05T20:06:29.280Z,9.20
2022-09-05T20:09:18.022Z,5.00
2022-09-05T20:11:59.037Z,5.10
2022-09-05T20:14:36.920Z,4.90
2022-09-05T20:17:31.287Z,7.00
2022-09-05T20:20:14.923Z,5.30
2022-09-05T20:22:50.947Z,6.90
2022-09-05T20:25:40.070Z,5.10
2022-09-05T20:28:18.252Z,5.90
2022-09-05T20:30:54.455Z,7.30
2022-09-05T20:33:57.112Z,6.90
2022-09-05T20:43:08.492Z,7.40
2022-09-05T20:43:21.186Z,7.70
2022-09-05T20:43:24.932Z,7.60
2022-09-05T20:46:27.933Z,6.60
2022-09-05T20:54:24.889Z,6.90
2022-09-05T20:54:28.649Z,9.10
2022-09-05T20:54:44.236Z,10.00
2022-09-05T20:57:23.065Z,8.10
2022-09-05T20:59:51.019Z,7.50
2022-09-05T21:02:32.461Z,8.80
2022-09-05T21:05:20.038Z,7.10
2022-09-05T21:08:07.092Z,7.40
2022-09-05T21:10:55.220Z,6.80
2022-09-05T21:13:52.787Z,9.60
2022-09-05T21:16:28.458Z,9.20
2022-09-05T21:18:56.408Z,7.10
2022-09-05T21:21:34.296Z,6.50
2022-09-05T21:24:16.070Z,6.30
2022-09-05T21:26:47.019Z,6.60
2022-09-05T21:29:32.613Z,8.70
2022-09-05T21:32:10.479Z,8.80
2022-09-05T21:34:56.706Z,8.00
2022-09-05T21:37:25.700Z,6.90
2022-09-05T21:39:58.777Z,8.10
2022-09-05T21:44:07.377Z,7.80
2022-09-05T21:47:37.890Z,7.60
2022-09-05T21:48:15.813Z,7.60
2022-09-05T21:50:53.116Z,8.60
2022-09-05T21:56:50.299Z,8.70
2022-09-05T21:59:28.594Z,9.30
2022-09-05T21:59:46.495Z,14.50
2022-09-05T22:02:16.997Z,12.40
2022-09-05T22:04:47.364Z,14.20
2022-09-05T22:07:31.700Z,13.60
2022-09-05T22:10:07.900Z,10.50
2022-09-05T22:12:39.421Z,10.60
2022-09-05T22:15:27.938Z,13.80
2022-09-05T22:18:16.066Z,13.40
2022-09-05T22:20:51.222Z,11.90
2022-09-05T22:23:41.424Z,11.70
2022-09-05T22:26:09.291Z,9.90
2022-09-05T22:28:51.898Z,8.80
2022-09-05T22:31:20.753Z,9.40
2022-09-05T22:33:50.838Z,10.60
2022-09-05T22:36:19.811Z,12.90
2022-09-05T22:38:47.929Z,9.60
2022-09-05T22:41:15.843Z,8.30
2022-09-05T22:43:46.850Z,8.40
2022-09-05T22:46:15.391Z,5.80
2022-09-05T22:48:43.223Z,8.40
2022-09-05T22:51:11.118Z,6.30
2022-09-05T22:53:39.028Z,8.90
2022-09-05T22:56:08.458Z,6.10
2022-09-05T22:58:45.622Z,7.20
2022-09-05T23:01:13.494Z,7.40
2022-09-05T23:03:41.308Z,5.90
2022-09-05T23:06:11.118Z,7.00
2022-09-05T23:08:40.116Z,6.60
2022-09-05T23:11:14.273Z,7.10
2022-09-05T23:13:42.805Z,9.60
2022-09-05T23:16:11.645Z,9.50
2022-09-05T23:18:40.027Z,8.30
2022-09-05T23:21:11.784Z,7.00
2022-09-05T23:23:41.753Z,9.50
2022-09-05T23:26:13.967Z,8.60
2022-09-05T23:28:44.336Z,8.60
2022-09-05T23:31:13.208Z,9.70
2022-09-05T23:33:42.427Z,9.50
2022-09-05T23:36:15.955Z,10.10
2022-09-05T23:38:44.257Z,11.10
2022-09-05T23:41:15.003Z,10.20
2022-09-05T23:43:43.141Z,7.70
2022-09-05T23:46:11.083Z,7.30
2022-09-05T23:48:39.506Z,9.20
2022-09-05T23:51:10.978Z,9.20
2022-09-05T23:53:39.642Z,10.20
2022-09-05T23:56:11.212Z,8.70
2022-09-05T23:58:39.189Z,8.70
